Time;durP1;ratioP1;P1;durP2;ratioP2;P2;SDS_P1;SDS_P2;PMS_P1;PMS_P2;Temp;Humidity;BMP_temperature;BMP_pressure;BME280_temperature;BME280_humidity;BME280_pressure;Samples;Min_cycle;Max_cycle;Signal;HPM_P1;HPM_P2
2022/11/20 00:02:18;;;;;;;0.00;0.00;;;;;;;9.02;76.03;99902.97;7364983;19;20122;-60
2022/11/20 00:04:44;;;;;;;0.00;0.00;;;;;;;9.00;75.89;99905.63;7363344;19;20094;-59
2022/11/20 00:07:09;;;;;;;0.00;0.00;;;;;;;8.99;75.72;99906.53;7364631;19;20032;-60
2022/11/20 00:09:35;;;;;;;0.00;0.00;;;;;;;8.95;75.90;99904.91;7365642;19;20014;-60
2022/11/20 00:12:00;;;;;;;0.00;0.00;;;;;;;8.96;75.65;99911.81;7363893;19;20026;-59
2022/11/20 00:14:25;;;;;;;0.00;0.00;;;;;;;8.93;76.16;99917.13;7365646;19;20515;-60
2022/11/20 00:16:51;;;;;;;0.00;0.00;;;;;;;8.92;76.10;99917.16;7360742;19;20021;-59
2022/11/20 00:19:16;;;;;;;0.00;0.00;;;;;;;8.90;76.15;99918.97;7363586;19;20077;-59
2022/11/20 00:21:42;;;;;;;0.10;0.10;;;;;;;8.88;76.22;99919.00;7363391;19;20121;-58
2022/11/20 00:24:08;;;;;;;0.10;0.10;;;;;;;8.88;76.29;99924.22;7364969;19;20045;-59
2022/11/20 00:26:33;;;;;;;0.00;0.00;;;;;;;8.84;76.42;99925.19;7360336;19;20034;-60
2022/11/20 00:29:00;;;;;;;0.00;0.00;;;;;;;8.84;76.18;99927.78;7364009;19;20045;-60
2022/11/20 00:31:27;;;;;;;0.00;0.00;;;;;;;8.81;76.15;99923.50;7364635;19;20019;-57
2022/11/20 00:33:52;;;;;;;0.08;0.08;;;;;;;8.79;76.10;99929.69;7365550;19;20021;-60
2022/11/20 00:36:20;;;;;;;0.10;0.10;;;;;;;8.72;75.81;99923.78;7361595;19;20014;-59
2022/11/20 00:38:47;;;;;;;0.00;0.00;;;;;;;8.74;76.44;99935.00;7364018;19;20568;-58
2022/11/20 00:41:15;;;;;;;0.00;0.00;;;;;;;8.74;76.27;99931.56;7361427;19;20472;-60
2022/11/20 00:43:41;;;;;;;0.00;0.00;;;;;;;8.55;76.09;99897.34;7361794;19;20102;-59
2022/11/20 00:46:17;;;;;;;0.00;0.00;;;;;;;8.71;76.49;99940.28;7358935;19;20021;-59
2022/11/20 00:48:44;;;;;;;0.00;0.00;;;;;;;8.67;76.35;99941.28;7362315;19;20020;-60
2022/11/20 00:51:12;;;;;;;0.10;0.10;;;;;;;8.66;76.25;99943.91;7363215;19;20042;-58
2022/11/20 00:53:37;;;;;;;0.00;0.00;;;;;;;8.64;76.24;99940.50;7362501;19;20015;-59
2022/11/20 00:56:05;;;;;;;0.00;0.00;;;;;;;8.60;76.66;99934.53;7363565;19;20026;-60
2022/11/20 00:58:37;;;;;;;0.00;0.00;;;;;;;8.45;76.72;99914.97;7357609;19;20073;-59
2022/11/20 01:01:10;;;;;;;0.05;0.05;;;;;;;8.58;76.19;99950.19;7365506;19;20011;-60
2022/11/20 01:03:39;;;;;;;0.00;0.00;;;;;;;8.55;76.46;99937.25;7368319;19;20638;-60
2022/11/20 01:06:12;;;;;;;0.00;0.00;;;;;;;8.53;76.26;99949.44;7369207;19;20021;-59
2022/11/20 01:08:38;;;;;;;0.10;0.10;;;;;;;8.44;76.76;99943.63;7366976;19;20681;-60
2022/11/20 01:11:06;;;;;;;0.10;0.10;;;;;;;8.45;76.83;99929.72;7368254;19;22318;-59
2022/11/20 01:13:38;;;;;;;0.00;0.00;;;;;;;8.44;77.04;99934.06;7369095;19;20006;-59
2022/11/20 01:16:10;;;;;;;0.10;0.10;;;;;;;8.43;77.07;99942.78;7370163;19;20010;-60
2022/11/20 01:18:38;;;;;;;0.10;0.10;;;;;;;8.40;76.84;99948.06;7367696;19;20110;-59
2022/11/20 01:21:06;;;;;;;0.10;0.10;;;;;;;8.37;76.34;99940.34;7367648;19;20014;-59
2022/11/20 01:23:36;;;;;;;0.10;0.10;;;;;;;8.37;76.48;99940.34;7369542;19;20027;-60
2022/11/20 01:26:04;;;;;;;0.00;0.00;;;;;;;8.23;76.80;99925.06;7368151;19;20724;-60
2022/11/20 01:28:30;;;;;;;0.00;0.00;;;;;;;8.33;76.54;99941.28;7368117;19;20486;-59
2022/11/20 01:30:56;;;;;;;0.00;0.00;;;;;;;8.31;76.42;99948.25;7368569;19;20029;-60
2022/11/20 01:33:22;;;;;;;0.00;0.00;;;;;;;7.97;76.62;99886.72;7368647;19;20007;-60
2022/11/20 01:35:47;;;;;;;0.03;0.03;;;;;;;8.29;76.69;99950.03;7368356;19;20018;-59
2022/11/20 01:38:14;;;;;;;0.00;0.00;;;;;;;8.28;76.04;99949.19;7366596;19;20589;-59
2022/11/20 01:40:39;;;;;;;0.00;0.00;;;;;;;8.27;76.58;99951.84;7368384;19;20006;-59
2022/11/20 01:43:21;;;;;;;0.00;0.00;;;;;;;8.28;76.64;99953.53;7367535;19;20038;-59
2022/11/20 01:45:56;;;;;;;0.00;0.00;;;;;;;8.26;76.80;99955.31;7367645;19;20010;-59
2022/11/20 01:48:24;;;;;;;0.00;0.00;;;;;;;8.22;76.60;99958.91;7368509;19;20019;-59
2022/11/20 01:50:52;;;;;;;0.00;0.00;;;;;;;8.19;77.00;99953.78;7368116;19;20014;-59
2022/11/20 01:53:21;;;;;;;0.00;0.00;;;;;;;8.19;77.08;99951.16;7367305;19;20010;-59
2022/11/20 01:55:54;;;;;;;0.00;0.00;;;;;;;8.17;76.66;99958.16;7367837;19;20006;-60
2022/11/20 01:58:25;;;;;;;0.00;0.00;;;;;;;8.17;76.64;99952.97;7366362;19;20011;-60
2022/11/20 02:00:51;;;;;;;0.08;0.08;;;;;;;8.15;76.62;99970.34;7367493;19;20510;-59
2022/11/20 02:03:20;;;;;;;0.00;0.00;;;;;;;8.15;76.66;99965.13;7366423;19;20015;-60
2022/11/20 02:05:57;;;;;;;0.00;0.00;;;;;;;8.15;76.71;99952.13;7366159;19;20006;-59
2022/11/20 02:08:23;;;;;;;;;;;;;;;8.14;76.28;99955.63;7367438;19;20935;-59
2022/11/20 02:10:48;;;;;;;0.00;0.00;;;;;;;8.11;76.24;99960.91;7365013;19;19993;-60
2022/11/20 02:15:58;;;;;;;0.00;0.00;;;;;;;8.06;76.72;99955.84;7366395;19;20017;-59
2022/11/20 02:18:24;;;;;;;0.10;0.10;;;;;;;8.05;76.59;99977.50;7367643;19;22390;-59
2022/11/20 02:21:06;;;;;;;0.00;0.00;;;;;;;8.01;76.81;99974.16;7366446;19;20814;-60
2022/11/20 02:23:53;;;;;;;0.00;0.00;;;;;;;8.04;76.85;99989.66;7366238;19;20046;-59
2022/11/20 02:26:21;;;;;;;0.10;0.10;;;;;;;8.02;76.66;99994.06;7368304;19;20006;-59
2022/11/20 02:28:47;;;;;;;0.00;0.00;;;;;;;8.01;77.24;99994.09;7366408;19;20007;-59
2022/11/20 02:31:12;;;;;;;0.10;0.10;;;;;;;7.97;77.00;99990.69;7366384;19;20014;-59
2022/11/20 02:33:38;;;;;;;0.00;0.00;;;;;;;7.98;77.02;99996.75;7366756;19;20103;-59
2022/11/20 02:36:04;;;;;;;0.00;0.00;;;;;;;7.96;76.58;99982.94;7368067;19;20019;-59
2022/11/20 02:38:29;;;;;;;0.00;0.00;;;;;;;7.96;76.59;99986.41;7364808;19;20006;-58
2022/11/20 02:40:54;;;;;;;0.00;0.00;;;;;;;7.96;76.68;99978.59;7368133;19;20729;-59
2022/11/20 02:43:20;;;;;;;0.00;0.00;;;;;;;7.93;76.51;99968.25;7365798;19;20006;-59
2022/11/20 02:45:45;;;;;;;0.00;0.00;;;;;;;7.94;76.81;99969.09;7369109;19;20021;-59
2022/11/20 02:48:11;;;;;;;0.00;0.00;;;;;;;7.93;76.46;99963.06;7367783;19;20011;-59
2022/11/20 02:50:38;;;;;;;0.00;0.00;;;;;;;7.91;77.10;99954.47;7367490;19;20011;-59
2022/11/20 02:53:04;;;;;;;0.00;0.00;;;;;;;7.90;76.85;99955.31;7364574;19;20010;-59
2022/11/20 02:55:30;;;;;;;0.00;0.00;;;;;;;7.90;76.58;99963.13;7366020;19;20025;-59
2022/11/20 02:57:55;;;;;;;0.03;0.03;;;;;;;7.88;76.74;99959.72;7358459;19;20002;-59
2022/11/20 03:00:21;;;;;;;0.00;0.00;;;;;;;7.84;76.66;99952.88;7363750;19;20007;-59
2022/11/20 03:02:46;;;;;;;0.00;0.00;;;;;;;7.83;76.62;99960.72;7364684;19;20099;-59
2022/11/20 03:05:11;;;;;;;0.00;0.00;;;;;;;7.80;76.94;99959.03;7362080;19;20021;-59
2022/11/20 03:07:37;;;;;;;0.00;0.00;;;;;;;7.76;77.17;99960.00;7364828;19;20114;-59
2022/11/20 03:10:03;;;;;;;0.00;0.00;;;;;;;7.75;76.54;99951.34;7362195;19;20011;-59
2022/11/20 03:12:29;;;;;;;0.00;0.00;;;;;;;7.72;77.05;99954.03;7365042;19;20433;-58
2022/11/20 03:14:54;;;;;;;0.10;0.10;;;;;;;7.70;76.68;99957.53;7362431;19;20098;-60
2022/11/20 03:17:20;;;;;;;0.00;0.00;;;;;;;7.67;76.63;99961.06;7364627;19;20014;-59
2022/11/20 03:19:45;;;;;;;0.00;0.00;;;;;;;7.64;76.49;99952.47;7363708;19;20010;-59
2022/11/20 03:22:10;;;;;;;0.00;0.00;;;;;;;7.62;76.58;99949.06;7365411;19;20010;-58
2022/11/20 03:24:36;;;;;;;0.10;0.10;;;;;;;7.60;76.42;99950.84;7362057;19;20132;-59
2022/11/20 03:27:01;;;;;;;0.00;0.00;;;;;;;7.57;76.42;99948.31;7364518;19;20481;-58
2022/11/20 03:29:27;;;;;;;0.00;0.00;;;;;;;7.49;76.45;99938.94;7360294;19;20006;-59
2022/11/20 03:31:52;;;;;;;0.00;0.00;;;;;;;7.49;76.87;99931.16;7364636;19;20018;-58
2022/11/20 03:34:17;;;;;;;0.00;0.00;;;;;;;7.48;76.88;99929.44;7361697;19;20022;-59
2022/11/20 03:36:43;;;;;;;0.03;0.03;;;;;;;7.46;76.78;99926.03;7362761;19;20364;-59
2022/11/20 03:39:09;;;;;;;0.00;0.00;;;;;;;7.44;77.17;99922.59;7363305;19;20130;-60
2022/11/20 03:41:40;;;;;;;0.00;0.00;;;;;;;7.43;76.78;99920.91;7360540;19;20046;-59
2022/11/20 03:44:08;;;;;;;0.10;0.10;;;;;;;7.40;77.23;99910.59;7363146;19;20007;-60
2022/11/20 03:46:33;;;;;;;0.10;0.10;;;;;;;7.37;76.88;99915.84;7363518;19;20344;-59
2022/11/20 03:48:59;;;;;;;0.00;0.00;;;;;;;7.36;76.10;99914.16;7363947;19;20017;-59
2022/11/20 03:51:27;;;;;;;0.00;0.00;;;;;;;7.35;76.33;99917.63;7363081;19;20022;-59
2022/11/20 03:53:55;;;;;;;0.10;0.10;;;;;;;7.34;76.92;99920.25;7363375;19;20018;-59
2022/11/20 03:56:27;;;;;;;0.05;0.05;;;;;;;7.32;76.35;99935.88;7362063;19;20019;-59
2022/11/20 03:58:52;;;;;;;0.00;0.00;;;;;;;7.29;76.43;99939.38;7363986;19;20013;-59
2022/11/20 04:01:21;;;;;;;0.10;0.10;;;;;;;7.28;76.41;99931.63;7364874;19;20006;-59
2022/11/20 04:03:47;;;;;;;0.00;0.00;;;;;;;7.21;76.32;99932.66;7362615;19;21519;-59
2022/11/20 04:06:16;;;;;;;0.10;0.10;;;;;;;7.24;76.83;99935.16;7354124;19;20011;-59
2022/11/20 04:08:42;;;;;;;0.00;0.00;;;;;;;7.20;76.70;99933.56;7365372;19;20017;-60
2022/11/20 04:11:18;;;;;;;0.00;0.00;;;;;;;7.22;76.50;99932.63;7363762;19;21442;-59
2022/11/20 04:13:50;;;;;;;0.00;0.00;;;;;;;7.03;76.85;99906.19;7362401;19;20499;-59
2022/11/20 04:16:16;;;;;;;0.00;0.00;;;;;;;7.17;77.00;99939.66;7364392;19;20018;-59
2022/11/20 04:18:41;;;;;;;0.00;0.00;;;;;;;7.16;76.78;99939.69;7363946;19;21055;-59
2022/11/20 04:21:07;;;;;;;0.00;0.00;;;;;;;7.17;77.26;99944.00;7356148;19;20025;-59
2022/11/20 04:23:33;;;;;;;0.10;0.10;;;;;;;7.15;76.75;99943.19;7363319;19;20022;-57
2022/11/20 04:26:03;;;;;;;0.00;0.00;;;;;;;7.16;76.96;99937.94;7362938;19;20006;-59
2022/11/20 04:28:28;;;;;;;0.10;0.10;;;;;;;7.14;76.91;99942.28;7361905;19;20006;-59
2022/11/20 04:30:54;;;;;;;0.08;0.08;;;;;;;7.08;76.94;99936.38;7363741;19;20026;-59
2022/11/20 04:33:19;;;;;;;0.10;0.10;;;;;;;7.12;76.73;99954.47;7359569;19;20030;-59
2022/11/20 04:35:47;;;;;;;0.10;0.10;;;;;;;7.14;76.92;99954.41;7358673;19;20123;-59
2022/11/20 04:38:13;;;;;;;0.10;0.10;;;;;;;7.13;77.26;99957.91;7358453;19;20572;-59
2022/11/20 04:40:38;;;;;;;0.10;0.10;;;;;;;7.14;76.71;99959.63;7363648;19;21248;-59
2022/11/20 04:43:03;;;;;;;0.05;0.05;;;;;;;7.12;76.75;99954.47;7361767;19;20029;-59
2022/11/20 04:45:29;;;;;;;0.10;0.10;;;;;;;7.12;77.02;99964.00;7362890;19;20462;-59
2022/11/20 04:47:54;;;;;;;0.10;0.10;;;;;;;7.12;77.06;99967.44;7363621;19;20006;-59
2022/11/20 04:50:20;;;;;;;0.00;0.00;;;;;;;7.11;77.27;99967.50;7362518;19;20003;-59
2022/11/20 04:52:45;;;;;;;0.00;0.00;;;;;;;7.10;76.94;99958.84;7362366;19;20002;-59
2022/11/20 04:55:10;;;;;;;0.00;0.00;;;;;;;7.08;76.96;99954.56;7361558;19;20006;-59
2022/11/20 04:57:36;;;;;;;0.00;0.00;;;;;;;7.06;77.51;99961.53;7362809;19;20770;-59
2022/11/20 05:00:01;;;;;;;0.00;0.00;;;;;;;7.06;76.80;99967.56;7362537;19;20014;-57
2022/11/20 05:02:27;;;;;;;0.00;0.00;;;;;;;7.02;76.89;99961.59;7364083;19;20129;-59
2022/11/20 05:04:52;;;;;;;0.00;0.00;;;;;;;7.04;76.98;99969.31;7361438;19;20030;-59
2022/11/20 05:07:17;;;;;;;0.00;0.00;;;;;;;7.00;76.89;99965.97;7364524;19;20098;-59
2022/11/20 05:09:43;;;;;;;0.00;0.00;;;;;;;7.04;76.87;99969.31;7363585;19;20014;-59
2022/11/20 05:12:09;;;;;;;0.10;0.10;;;;;;;7.04;76.71;99966.72;7361998;19;20018;-59
2022/11/20 05:14:34;;;;;;;0.00;0.00;;;;;;;7.02;76.70;99963.31;7362168;19;20010;-59
2022/11/20 05:17:00;;;;;;;0.00;0.00;;;;;;;7.02;76.96;99977.16;7358851;19;20715;-59
2022/11/20 05:19:25;;;;;;;0.00;0.00;;;;;;;7.03;77.18;99981.47;7362531;19;20031;-59
2022/11/20 05:21:51;;;;;;;0.00;0.00;;;;;;;6.99;76.70;99972.03;7362125;19;20010;-59
2022/11/20 05:24:16;;;;;;;0.00;0.00;;;;;;;7.03;77.05;99972.81;7362742;19;20575;-59
2022/11/20 05:26:41;;;;;;;0.00;0.00;;;;;;;6.93;77.05;99953.97;7361320;19;20014;-59
2022/11/20 05:29:10;;;;;;;0.10;0.10;;;;;;;7.06;76.96;99971.91;7362597;19;20539;-59
2022/11/20 05:31:37;;;;;;;0.00;0.00;;;;;;;7.05;76.98;99970.22;7362011;19;20015;-59
2022/11/20 05:34:02;;;;;;;0.10;0.10;;;;;;;7.01;77.15;99965.06;7362737;19;20010;-60
2022/11/20 05:36:28;;;;;;;0.00;0.00;;;;;;;7.02;77.36;99971.97;7357510;19;20553;-59
2022/11/20 05:38:53;;;;;;;0.00;0.00;;;;;;;7.01;77.09;99970.25;7363589;19;20011;-60
2022/11/20 05:41:20;;;;;;;0.10;0.10;;;;;;;7.07;77.31;99968.44;7359851;19;20078;-59
2022/11/20 05:43:47;;;;;;;0.00;0.00;;;;;;;7.04;77.42;99966.72;7362740;19;20007;-59
2022/11/20 05:46:15;;;;;;;0.00;0.00;;;;;;;7.03;77.49;99963.28;7357219;19;21407;-59
2022/11/20 05:48:42;;;;;;;0.05;0.05;;;;;;;7.06;77.16;99962.38;7368210;19;20074;-59
2022/11/20 05:51:10;;;;;;;0.00;0.00;;;;;;;7.05;77.29;99962.44;7367993;19;20014;-59
2022/11/20 05:53:37;;;;;;;0.00;0.00;;;;;;;6.93;76.77;99941.00;7368755;19;20006;-58
2022/11/20 05:56:09;;;;;;;0.10;0.10;;;;;;;7.07;77.10;99963.22;7368124;19;20108;-57
2022/11/20 05:58:35;;;;;;;0.00;0.00;;;;;;;7.03;76.96;99958.09;7368290;19;20010;-59
2022/11/20 06:01:11;;;;;;;0.10;0.10;;;;;;;7.06;77.06;99956.34;7368678;19;20021;-59
2022/11/20 06:03:38;;;;;;;0.00;0.00;;;;;;;7.05;77.30;99955.50;7366596;19;20074;-59
2022/11/20 06:06:05;;;;;;;0.10;0.10;;;;;;;7.03;76.99;99952.91;7368577;19;20014;-58
2022/11/20 06:08:30;;;;;;;0.00;0.00;;;;;;;7.02;76.88;99951.19;7368454;19;20002;-59
2022/11/20 06:10:56;;;;;;;0.00;0.00;;;;;;;7.00;77.11;99950.38;7364668;19;20475;-59
2022/11/20 06:13:22;;;;;;;0.00;0.00;;;;;;;7.01;77.42;99949.50;7366149;19;20025;-59
2022/11/20 06:15:51;;;;;;;0.00;0.00;;;;;;;7.01;77.47;99944.31;7367637;19;20615;-59
2022/11/20 06:18:17;;;;;;;0.08;0.08;;;;;;;6.99;77.04;99940.91;7366604;19;20027;-59
2022/11/20 06:20:43;;;;;;;0.00;0.00;;;;;;;7.00;77.08;99947.78;7367135;19;20006;-59
2022/11/20 06:23:08;;;;;;;0.05;0.05;;;;;;;6.99;77.31;99930.50;7367724;19;20010;-59
2022/11/20 06:25:38;;;;;;;0.00;0.00;;;;;;;6.99;77.05;99919.25;7368616;19;20103;-59
2022/11/20 06:28:03;;;;;;;0.00;0.00;;;;;;;6.98;77.27;99915.81;7365666;19;20003;-60
2022/11/20 06:30:29;;;;;;;0.10;0.10;;;;;;;6.97;77.10;99913.25;7366464;19;22598;-60
2022/11/20 06:32:54;;;;;;;0.00;0.00;;;;;;;6.96;76.90;99925.38;7367249;19;20042;-59
2022/11/20 06:35:20;;;;;;;0.00;0.00;;;;;;;6.95;76.92;99934.06;7369075;19;20018;-59
2022/11/20 06:37:45;;;;;;;0.10;0.10;;;;;;;6.95;77.09;99926.25;7366355;19;20086;-59
2022/11/20 06:40:11;;;;;;;0.00;0.00;;;;;;;6.96;77.10;99930.56;7368485;19;20781;-59
2022/11/20 06:42:36;;;;;;;0.00;0.00;;;;;;;6.96;76.94;99922.78;7365644;19;20890;-59
2022/11/20 06:45:02;;;;;;;0.00;0.00;;;;;;;6.96;77.18;99914.13;7366294;19;20010;-59
2022/11/20 06:47:28;;;;;;;0.00;0.00;;;;;;;6.95;76.97;99907.25;7365269;19;20010;-59
2022/11/20 06:49:53;;;;;;;0.10;0.10;;;;;;;6.94;77.18;99906.34;7368273;19;20010;-58
2022/11/20 06:52:19;;;;;;;0.10;0.10;;;;;;;6.95;77.36;99913.28;7365266;19;20006;-58
2022/11/20 06:54:44;;;;;;;0.00;0.00;;;;;;;6.95;76.95;99913.28;7366401;19;20014;-59
2022/11/20 06:57:09;;;;;;;0.10;0.10;;;;;;;6.95;77.18;99913.28;7364971;19;20014;-59
2022/11/20 06:59:35;;;;;;;0.00;0.00;;;;;;;6.92;77.29;99913.34;7355088;19;20688;-60
2022/11/20 07:02:00;;;;;;;0.00;0.00;;;;;;;6.93;77.26;99904.66;7364854;19;20014;-59
2022/11/20 07:04:25;;;;;;;0.08;0.08;;;;;;;6.93;77.09;99920.22;7366576;19;20010;-59
2022/11/20 07:06:51;;;;;;;0.10;0.10;;;;;;;6.92;77.18;99908.16;7363035;19;20347;-59
2022/11/20 07:09:16;;;;;;;0.00;0.00;;;;;;;6.90;77.04;99914.28;7363889;19;20018;-60
2022/11/20 07:11:42;;;;;;;0.00;0.00;;;;;;;6.88;77.12;99901.31;7365275;19;20121;-59
2022/11/20 07:14:07;;;;;;;0.00;0.00;;;;;;;6.90;77.09;99909.06;7364006;19;20446;-59
2022/11/20 07:16:32;;;;;;;0.00;0.00;;;;;;;6.90;77.08;99904.75;7364196;19;20018;-57
2022/11/20 07:18:58;;;;;;;0.00;0.00;;;;;;;6.88;77.12;99906.50;7363400;19;20584;-59
2022/11/20 07:21:23;;;;;;;0.00;0.00;;;;;;;6.88;77.35;99905.63;7363884;19;20029;-57
2022/11/20 07:23:48;;;;;;;0.10;0.10;;;;;;;6.88;76.87;99922.06;7364632;19;20462;-59
2022/11/20 07:26:14;;;;;;;0.00;0.00;;;;;;;6.88;77.14;99897.84;7362696;19;20023;-59
2022/11/20 07:28:39;;;;;;;0.00;0.00;;;;;;;6.90;76.89;99906.47;7365623;19;20630;-59
2022/11/20 07:31:09;;;;;;;0.00;0.00;;;;;;;6.88;77.29;99910.84;7362867;19;21968;-59
2022/11/20 07:33:34;;;;;;;0.00;0.00;;;;;;;6.75;77.30;99897.25;7365258;19;20041;-59
2022/11/20 07:36:00;;;;;;;0.00;0.00;;;;;;;6.88;77.41;99919.47;7365699;19;20026;-59
2022/11/20 07:38:25;;;;;;;0.10;0.10;;;;;;;6.88;77.13;99916.88;7361392;19;20011;-59
2022/11/20 07:40:55;;;;;;;0.05;0.05;;;;;;;6.91;77.26;99913.38;7365389;19;20038;-59
2022/11/20 07:43:21;;;;;;;0.10;0.10;;;;;;;6.90;77.56;99911.69;7361999;19;20017;-60
2022/11/20 07:45:46;;;;;;;0.00;0.00;;;;;;;6.90;77.31;99919.47;7365484;19;21412;-58
2022/11/20 07:48:11;;;;;;;0.10;0.10;;;;;;;6.90;77.32;99915.13;7363793;19;20086;-59
2022/11/20 07:50:37;;;;;;;0.00;0.00;;;;;;;6.88;77.43;99903.91;7363273;19;20701;-59
2022/11/20 07:53:05;;;;;;;0.00;0.00;;;;;;;6.79;76.98;99891.09;7362355;19;20015;-59
2022/11/20 07:55:32;;;;;;;0.10;0.10;;;;;;;6.81;77.50;99899.72;7364461;19;20014;-59
2022/11/20 07:57:58;;;;;;;0.00;0.00;;;;;;;6.93;77.50;99903.81;7365156;19;20070;-59
2022/11/20 08:00:24;;;;;;;0.10;0.10;;;;;;;6.92;77.46;99908.16;7363609;19;20021;-59
2022/11/20 08:02:50;;;;;;;0.05;0.05;;;;;;;6.92;77.35;99913.34;7361294;19;20014;-58
2022/11/20 08:05:15;;;;;;;0.08;0.08;;;;;;;6.94;77.81;99910.69;7363713;19;20407;-59
2022/11/20 08:07:42;;;;;;;0.00;0.00;;;;;;;6.96;77.33;99917.59;7361143;19;20014;-59
2022/11/20 08:10:10;;;;;;;0.00;0.00;;;;;;;6.97;77.79;99916.69;7363749;19;20041;-58
2022/11/20 08:15:20;;;;;;;0.00;0.00;;;;;;;6.98;77.54;99921.00;7365421;19;20038;-59
2022/11/20 08:17:45;;;;;;;0.00;0.00;;;;;;;7.01;77.37;99918.34;7362709;19;20018;-59
2022/11/20 08:20:11;;;;;;;0.08;0.08;;;;;;;6.99;77.19;99920.13;7362949;19;20010;-60
2022/11/20 08:22:36;;;;;;;0.00;0.00;;;;;;;7.06;77.56;99930.38;7362268;19;20025;-60
2022/11/20 08:25:02;;;;;;;0.10;0.10;;;;;;;7.08;77.38;99923.41;7363711;19;20021;-59
2022/11/20 08:27:27;;;;;;;0.00;0.00;;;;;;;7.08;77.48;99931.19;7360827;19;20045;-59
2022/11/20 08:29:53;;;;;;;0.03;0.03;;;;;;;7.00;77.49;99903.66;7352312;19;20374;-59
2022/11/20 08:32:18;;;;;;;0.03;0.03;;;;;;;7.10;77.37;99921.66;7360589;19;20047;-59
2022/11/20 08:34:43;;;;;;;0.03;0.03;;;;;;;7.11;77.44;99923.34;7359090;19;20018;-59
2022/11/20 08:37:09;;;;;;;0.00;0.00;;;;;;;7.12;77.91;99914.66;7361671;19;20013;-59
2022/11/20 08:39:34;;;;;;;0.00;0.00;;;;;;;7.16;77.64;99919.75;7358684;19;20014;-59
2022/11/20 08:41:59;;;;;;;0.00;0.00;;;;;;;7.18;77.78;99915.38;7352124;19;20454;-59
2022/11/20 08:44:25;;;;;;;0.00;0.00;;;;;;;7.21;78.02;99922.28;7337350;19;20473;-59
2022/11/20 08:46:50;;;;;;;0.10;0.10;;;;;;;7.24;77.72;99925.63;7346746;19;20006;-58
2022/11/20 08:49:16;;;;;;;0.05;0.05;;;;;;;7.30;77.80;99929.88;7357923;19;20022;-59
2022/11/20 08:51:42;;;;;;;0.10;0.10;;;;;;;7.25;77.61;99916.97;7359095;19;20015;-59
2022/11/20 08:54:08;;;;;;;0.10;0.10;;;;;;;7.37;77.86;99957.41;7359014;19;20134;-58
2022/11/20 08:56:34;;;;;;;0.00;0.00;;;;;;;7.40;77.77;99926.19;7350225;19;20017;-59
2022/11/20 08:58:59;;;;;;;0.00;0.00;;;;;;;7.45;77.80;99929.53;7353382;19;20942;-57
2022/11/20 09:01:25;;;;;;;0.10;0.10;;;;;;;7.50;77.78;99932.88;7355353;19;20038;-59
2022/11/20 09:03:51;;;;;;;0.00;0.00;;;;;;;7.56;77.90;99925.84;7354560;19;20407;-59
2022/11/20 09:06:17;;;;;;;0.00;0.00;;;;;;;7.31;77.80;99871.00;7349438;19;20034;-59
2022/11/20 09:08:42;;;;;;;0.00;0.00;;;;;;;7.61;77.82;99914.44;7355249;19;20014;-59
2022/11/20 09:11:08;;;;;;;0.10;0.10;;;;;;;7.62;77.51;99904.91;7353981;19;21048;-59
2022/11/20 09:13:35;;;;;;;0.00;0.00;;;;;;;7.69;78.00;99907.31;7347505;19;20019;-59
2022/11/20 09:16:04;;;;;;;0.00;0.00;;;;;;;7.73;77.73;99903.75;7351131;19;20059;-59
2022/11/20 09:18:32;;;;;;;0.03;0.03;;;;;;;7.75;77.71;99895.91;7351103;19;20007;-59
2022/11/20 09:21:02;;;;;;;0.00;0.00;;;;;;;7.77;77.50;99881.16;7349804;19;20052;-59
2022/11/20 09:23:33;;;;;;;0.00;0.00;;;;;;;7.83;77.67;99888.78;7356618;19;20702;-59
2022/11/20 09:26:01;;;;;;;0.00;0.00;;;;;;;7.87;77.62;99872.22;7358210;19;20092;-59
2022/11/20 09:28:27;;;;;;;0.08;0.08;;;;;;;7.86;77.05;99867.09;7357515;19;20010;-59
2022/11/20 09:30:52;;;;;;;0.00;0.00;;;;;;;7.89;77.21;99874.78;7354492;19;20470;-59
2022/11/20 09:33:18;;;;;;;0.00;0.00;;;;;;;7.89;77.22;99873.03;7354694;19;20018;-58
2022/11/20 09:35:43;;;;;;;0.00;0.00;;;;;;;7.92;77.48;99867.78;7357627;19;20030;-59
2022/11/20 09:38:10;;;;;;;0.00;0.00;;;;;;;7.95;77.32;99867.69;7358806;19;20021;-59
2022/11/20 09:40:43;;;;;;;0.00;0.00;;;;;;;7.98;76.96;99846.81;7357744;19;20533;-58
2022/11/20 09:43:46;;;;;;;0.00;0.00;;;;;;;8.03;76.91;99844.94;7359606;19;20453;-58
2022/11/20 09:46:27;;;;;;;0.00;0.00;;;;;;;8.06;76.74;99860.47;7259171;19;2004463;-59
2022/11/20 09:48:55;;;;;;;0.00;0.00;;;;;;;8.06;76.72;99855.28;7361576;19;20010;-59
2022/11/20 09:51:42;;;;;;;0.00;0.00;;;;;;;8.12;76.61;99848.22;7360108;19;20018;-59
2022/11/20 09:54:18;;;;;;;0.00;0.00;;;;;;;8.13;76.91;99844.72;7359559;19;20070;-59
2022/11/20 09:56:53;;;;;;;0.10;0.10;;;;;;;8.14;76.92;99852.47;7361205;19;20010;-59
2022/11/20 09:59:42;;;;;;;0.00;0.00;;;;;;;8.19;76.64;99850.59;7360250;19;20589;-59
2022/11/20 10:02:37;;;;;;;0.00;0.00;;;;;;;8.24;76.95;99837.47;7360631;19;20808;-59
2022/11/20 10:05:10;;;;;;;0.08;0.08;;;;;;;8.28;76.69;99849.50;7257063;19;2004597;-59
2022/11/20 10:07:44;;;;;;;0.00;0.00;;;;;;;8.32;76.12;99846.78;7356637;19;20070;-59
2022/11/20 10:10:19;;;;;;;0.00;0.00;;;;;;;8.35;76.57;99852.78;7352382;19;20029;-58
2022/11/20 10:13:12;;;;;;;0.10;0.10;;;;;;;8.40;76.59;99851.78;7356048;19;20019;-59
2022/11/20 10:15:56;;;;;;;0.00;0.00;;;;;;;8.44;76.13;99835.22;7254546;19;2004547;-59
2022/11/20 10:18:37;;;;;;;0.00;0.00;;;;;;;8.48;75.97;99857.66;7357545;19;20014;-58
2022/11/20 10:21:17;;;;;;;0.10;0.10;;;;;;;8.52;76.24;99856.69;7346617;19;20046;-59
2022/11/20 10:24:24;;;;;;;0.00;0.00;;;;;;;8.55;75.95;99853.97;7357928;19;20014;-58
2022/11/20 10:27:15;;;;;;;0.00;0.00;;;;;;;8.60;75.76;99869.47;7253232;19;2004418;-59
2022/11/20 10:29:46;;;;;;;0.00;0.00;;;;;;;8.61;75.76;99868.56;7357408;19;20766;-60
2022/11/20 10:32:18;;;;;;;0.08;0.08;;;;;;;8.66;75.92;99860.63;7360063;19;20014;-59
2022/11/20 10:34:54;;;;;;;0.00;0.00;;;;;;;8.67;75.47;99858.00;7358911;19;20807;-59
2022/11/20 10:37:25;;;;;;;0.10;0.10;;;;;;;8.67;75.80;99857.13;7359300;19;20358;-59
2022/11/20 10:39:58;;;;;;;0.10;0.10;;;;;;;8.73;76.00;99868.22;7354938;19;20023;-58
2022/11/20 10:42:43;;;;;;;0.10;0.10;;;;;;;8.77;75.83;99848.19;7356658;19;20015;-59
2022/11/20 10:45:31;;;;;;;0.00;0.00;;;;;;;8.81;75.87;99870.59;7353881;19;20750;-59
2022/11/20 10:48:09;;;;;;;0.00;0.00;;;;;;;8.86;76.19;99862.66;7355583;19;20031;-59
2022/11/20 10:50:46;;;;;;;0.00;0.00;;;;;;;8.91;76.00;99863.38;7355806;19;20640;-59
2022/11/20 10:53:40;;;;;;;0.00;0.00;;;;;;;8.99;76.60;99879.63;7356365;19;20010;-59
2022/11/20 10:56:14;;;;;;;0.00;0.00;;;;;;;9.08;76.04;99880.22;7250915;19;2004416;-59
2022/11/20 10:58:42;;;;;;;0.10;0.10;;;;;;;9.16;75.96;99874.78;7355491;19;20034;-59
2022/11/20 11:01:16;;;;;;;0.00;0.00;;;;;;;9.20;75.88;99884.22;7354513;19;20006;-59
2022/11/20 11:03:45;;;;;;;0.00;0.00;;;;;;;9.23;75.81;99883.28;7354353;19;22029;-59
2022/11/20 11:06:36;;;;;;;0.00;0.00;;;;;;;9.33;76.24;99892.53;7356046;19;20993;-59
2022/11/20 11:09:10;;;;;;;0.10;0.10;;;;;;;9.46;76.12;99895.59;7356654;19;20034;-59
2022/11/20 11:11:38;;;;;;;0.10;0.10;;;;;;;9.65;76.35;99921.94;7356697;19;20011;-58
2022/11/20 11:14:14;;;;;;;0.00;0.00;;;;;;;9.90;76.63;99915.03;7352509;19;20010;-58
2022/11/20 11:16:53;;;;;;;0.00;0.00;;;;;;;10.13;77.33;99899.47;7354957;19;20742;-59
2022/11/20 11:19:19;;;;;;;0.00;0.00;;;;;;;10.52;76.40;99917.31;7352626;19;20011;-59
2022/11/20 11:21:53;;;;;;;0.00;0.00;;;;;;;10.82;75.78;99920.59;7357397;19;20077;-59
2022/11/20 11:24:27;;;;;;;0.00;0.00;;;;;;;10.98;75.70;99905.19;7354320;19;20010;-59
2022/11/20 11:27:06;;;;;;;0.08;0.08;;;;;;;11.25;75.03;99937.28;7356563;19;20411;-59
2022/11/20 11:29:32;;;;;;;0.08;0.08;;;;;;;11.40;74.74;99951.53;7354124;19;20010;-59
2022/11/20 11:32:15;;;;;;;0.00;0.00;;;;;;;11.66;74.99;99934.88;7358482;19;20030;-59
2022/11/20 11:34:41;;;;;;;0.00;0.00;;;;;;;11.86;74.41;99941.94;7352093;19;20007;-60
2022/11/20 11:37:23;;;;;;;0.00;0.00;;;;;;;12.23;74.33;99927.34;7354490;19;20006;-60
2022/11/20 11:39:49;;;;;;;0.00;0.00;;;;;;;12.31;72.36;99915.63;7354429;19;20051;-59
2022/11/20 11:42:19;;;;;;;0.00;0.00;;;;;;;12.61;71.18;99942.28;7354674;19;20006;-60
2022/11/20 11:45:05;;;;;;;0.00;0.00;;;;;;;12.62;70.17;99928.28;7353033;19;20044;-60
2022/11/20 11:47:52;;;;;;;0.00;0.00;;;;;;;12.57;70.09;99909.28;7355905;19;20011;-59
2022/11/20 11:50:19;;;;;;;0.00;0.00;;;;;;;12.54;70.34;99924.28;7354075;19;20010;-59
2022/11/20 11:52:47;;;;;;;0.03;0.03;;;;;;;12.50;70.27;99918.31;7354822;19;20954;-59
2022/11/20 11:55:35;;;;;;;0.10;0.10;;;;;;;12.56;70.81;99932.91;7354786;19;20015;-59